createdAt,value
2022-10-12T00:01:12.017Z,4.10
2022-10-12T00:03:42.601Z,3.93
2022-10-12T00:06:12.698Z,3.53
2022-10-12T00:08:43.932Z,3.57
2022-10-12T00:11:17.714Z,4.13
2022-10-12T00:13:46.513Z,3.87
2022-10-12T00:16:17.241Z,3.33
2022-10-12T00:18:45.847Z,3.70
2022-10-12T00:21:16.445Z,3.43
2022-10-12T00:23:46.042Z,3.03
2022-10-12T00:26:18.758Z,3.30
2022-10-12T00:28:47.446Z,3.40
2022-10-12T00:31:18.748Z,3.63
2022-10-12T00:33:47.737Z,3.07
2022-10-12T00:36:18.689Z,3.30
2022-10-12T00:38:50.170Z,3.03
2022-10-12T00:41:22.737Z,3.67
2022-10-12T00:43:56.818Z,3.03
2022-10-12T00:46:31.982Z,3.00
2022-10-12T00:49:11.428Z,2.90
2022-10-12T00:51:42.423Z,3.10
2022-10-12T00:54:15.330Z,3.50
2022-10-12T00:56:48.045Z,3.27
2022-10-12T00:59:22.191Z,3.07
2022-10-12T01:01:51.201Z,3.20
2022-10-12T01:04:19.741Z,3.43
2022-10-12T01:06:48.345Z,3.00
2022-10-12T01:09:17.037Z,3.27
2022-10-12T01:11:46.895Z,2.80
2022-10-12T01:14:15.687Z,3.13
2022-10-12T01:16:53.720Z,2.87
2022-10-12T01:19:43.516Z,2.63
2022-10-12T01:22:16.891Z,3.33
2022-10-12T01:24:53.787Z,3.27
2022-10-12T01:27:47.094Z,3.47
2022-10-12T01:30:21.946Z,3.23
2022-10-12T01:33:11.363Z,2.77
2022-10-12T01:35:51.373Z,3.13
2022-10-12T01:38:31.513Z,3.27
2022-10-12T01:41:06.419Z,2.83
2022-10-12T01:43:36.716Z,3.63
2022-10-12T01:46:45.751Z,3.00
2022-10-12T01:49:17.031Z,3.20
2022-10-12T01:52:14.870Z,2.80
2022-10-12T01:55:01.053Z,2.93
2022-10-12T01:57:38.876Z,2.57
2022-10-12T02:00:10.164Z,3.10
2022-10-12T02:02:50.993Z,3.00
2022-10-12T02:05:29.071Z,2.17
2022-10-12T02:08:04.517Z,2.97
2022-10-12T02:10:40.468Z,3.50
2022-10-12T02:13:14.475Z,3.13
2022-10-12T02:15:45.299Z,3.20
2022-10-12T02:18:18.943Z,2.77
2022-10-12T02:20:51.108Z,2.90
2022-10-12T02:23:24.187Z,3.30
2022-10-12T02:25:54.260Z,3.27
2022-10-12T02:28:25.673Z,3.27
2022-10-12T02:31:01.311Z,3.10
2022-10-12T02:33:36.959Z,3.87
2022-10-12T02:36:10.943Z,3.63
2022-10-12T02:38:44.297Z,3.03
2022-10-12T02:41:18.239Z,3.40
2022-10-12T02:43:51.860Z,2.90
2022-10-12T02:46:24.054Z,4.00
2022-10-12T02:48:56.749Z,3.30
2022-10-12T02:51:25.871Z,3.77
2022-10-12T02:53:54.791Z,3.10
2022-10-12T02:56:23.390Z,3.70
2022-10-12T02:58:52.020Z,3.40
2022-10-12T03:01:21.336Z,3.00
2022-10-12T03:03:49.910Z,3.83
2022-10-12T03:06:20.815Z,3.47
2022-10-12T03:08:49.209Z,3.90
2022-10-12T03:11:17.634Z,3.47
2022-10-12T03:13:45.995Z,3.90
2022-10-12T03:16:14.302Z,4.20
2022-10-12T03:18:42.765Z,3.47
2022-10-12T03:21:11.810Z,3.20
2022-10-12T03:23:41.931Z,3.20
2022-10-12T03:26:10.375Z,3.47
2022-10-12T03:28:39.004Z,3.60
2022-10-12T03:31:08.137Z,3.67
2022-10-12T03:33:36.506Z,4.67
2022-10-12T03:36:05.221Z,3.57
2022-10-12T03:38:33.583Z,3.63
2022-10-12T03:41:06.704Z,4.00
2022-10-12T03:43:36.277Z,3.70
2022-10-12T03:46:04.783Z,3.83
2022-10-12T03:48:33.325Z,3.87
2022-10-12T03:51:01.955Z,3.80
2022-10-12T03:53:31.325Z,3.80
2022-10-12T03:55:59.899Z,4.63
2022-10-12T03:58:29.785Z,4.20
2022-10-12T04:00:58.190Z,3.87
2022-10-12T04:03:26.714Z,3.60
2022-10-12T04:05:55.902Z,4.17
2022-10-12T04:08:24.816Z,4.53
2022-10-12T04:10:53.224Z,3.53
2022-10-12T04:13:21.622Z,3.93
2022-10-12T04:15:51.485Z,3.63
2022-10-12T04:18:20.030Z,4.50
2022-10-12T04:20:49.983Z,4.50
2022-10-12T04:23:18.455Z,4.13
2022-10-12T04:25:47.453Z,4.53
2022-10-12T04:28:15.908Z,4.17
2022-10-12T04:30:44.471Z,4.27
2022-10-12T04:33:14.306Z,4.40
2022-10-12T04:35:42.785Z,5.27
2022-10-12T04:38:13.075Z,4.23
2022-10-12T04:40:41.473Z,4.30
2022-10-12T04:43:09.725Z,4.47
2022-10-12T04:45:38.172Z,4.50
2022-10-12T04:48:06.758Z,3.87
2022-10-12T04:50:36.686Z,4.10
2022-10-12T04:53:05.013Z,3.80
2022-10-12T04:55:33.581Z,5.20
2022-10-12T04:58:01.958Z,4.70
2022-10-12T05:00:30.320Z,4.53
2022-10-12T05:02:58.771Z,4.27
2022-10-12T05:05:27.646Z,4.00
2022-10-12T05:07:57.440Z,3.73
2022-10-12T05:10:26.080Z,4.07
2022-10-12T05:12:54.757Z,3.90
2022-10-12T05:15:23.128Z,5.27
2022-10-12T05:17:51.776Z,4.90
2022-10-12T05:20:20.204Z,4.90
2022-10-12T05:22:48.587Z,5.00
2022-10-12T05:25:19.502Z,4.00
2022-10-12T05:27:47.962Z,4.10
2022-10-12T05:30:16.796Z,5.10
2022-10-12T05:32:45.183Z,4.63
2022-10-12T05:35:13.682Z,4.90
2022-10-12T05:37:42.199Z,4.90
2022-10-12T05:40:11.592Z,4.97
2022-10-12T05:42:41.620Z,4.67
2022-10-12T05:45:11.420Z,4.83
2022-10-12T05:47:40.085Z,5.60
2022-10-12T05:50:09.769Z,4.33
2022-10-12T05:52:38.277Z,5.00
2022-10-12T05:55:07.899Z,5.40
2022-10-12T05:57:36.717Z,4.53
2022-10-12T06:00:08.717Z,5.43
2022-10-12T06:02:40.010Z,5.53
2022-10-12T06:05:09.155Z,5.13
2022-10-12T06:07:37.620Z,6.60
2022-10-12T06:10:07.057Z,5.77
2022-10-12T06:12:37.894Z,6.30
2022-10-12T06:15:09.749Z,7.17
2022-10-12T06:17:38.538Z,6.83
2022-10-12T06:20:07.923Z,6.50
2022-10-12T06:22:36.962Z,6.07
2022-10-12T06:25:06.162Z,6.23
2022-10-12T06:27:34.710Z,7.10
2022-10-12T06:30:03.157Z,5.87
2022-10-12T06:32:33.607Z,7.00
2022-10-12T06:35:01.961Z,6.80
2022-10-12T06:37:49.089Z,7.23
2022-10-12T06:40:19.728Z,6.80
2022-10-12T06:42:49.481Z,9.47
2022-10-12T06:45:18.750Z,9.40
2022-10-12T06:47:48.622Z,9.70
2022-10-12T06:50:17.191Z,10.37
2022-10-12T06:52:45.624Z,15.07
2022-10-12T06:55:13.942Z,17.23
2022-10-12T06:57:42.422Z,16.87
2022-10-12T07:00:12.607Z,15.17
2022-10-12T07:02:41.323Z,14.97
2022-10-12T07:05:11.400Z,14.93
2022-10-12T07:07:39.781Z,13.43
2022-10-12T07:10:08.858Z,13.20
2022-10-12T07:12:38.488Z,13.97
2022-10-12T07:15:08.534Z,14.17
2022-10-12T07:17:37.484Z,13.97
2022-10-12T07:20:07.758Z,13.33
2022-10-12T07:22:37.715Z,12.93
2022-10-12T07:25:06.936Z,12.57
2022-10-12T07:27:36.471Z,11.03
2022-10-12T07:30:05.647Z,13.23
2022-10-12T07:32:34.295Z,12.80
2022-10-12T07:35:02.769Z,12.43
2022-10-12T07:37:31.240Z,14.03
2022-10-12T07:40:01.073Z,12.87
2022-10-12T07:42:29.402Z,14.20
2022-10-12T07:44:57.898Z,14.43
2022-10-12T07:47:26.600Z,13.57
2022-10-12T07:49:54.940Z,15.73
2022-10-12T07:52:23.388Z,14.60
2022-10-12T07:54:52.600Z,15.20
2022-10-12T07:57:22.308Z,16.20
2022-10-12T07:59:50.811Z,15.40
2022-10-12T08:02:19.143Z,15.77
2022-10-12T08:04:47.715Z,17.07
2022-10-12T08:07:16.460Z,16.73
2022-10-12T08:09:45.020Z,14.50
2022-10-12T08:12:13.489Z,15.57
2022-10-12T08:14:43.520Z,14.90
2022-10-12T08:17:11.957Z,15.43
2022-10-12T08:19:40.369Z,13.30
2022-10-12T08:22:08.948Z,13.90
2022-10-12T08:24:37.490Z,13.30
2022-10-12T08:27:05.953Z,12.47
2022-10-12T08:29:34.281Z,12.57
2022-10-12T08:32:04.113Z,12.23
2022-10-12T08:34:32.607Z,12.07
2022-10-12T08:37:00.987Z,11.53
2022-10-12T08:39:29.296Z,11.63
2022-10-12T08:42:10.386Z,10.83
2022-10-12T08:45:02.899Z,10.80
2022-10-12T08:47:41.530Z,12.27
2022-10-12T08:50:18.677Z,11.07
2022-10-12T08:52:53.793Z,12.20
2022-10-12T08:55:32.177Z,10.13
2022-10-12T08:58:00.524Z,11.70
2022-10-12T09:00:31.408Z,11.37
2022-10-12T09:03:15.313Z,12.00
2022-10-12T09:05:48.318Z,11.90
2022-10-12T09:08:29.180Z,10.93
2022-10-12T09:11:09.880Z,11.23
2022-10-12T09:13:48.404Z,11.70
2022-10-12T09:16:24.134Z,12.13
2022-10-12T09:18:57.945Z,12.50
2022-10-12T09:21:29.545Z,12.73
2022-10-12T09:23:58.954Z,11.53
2022-10-12T09:26:35.937Z,11.23
2022-10-12T09:29:15.504Z,12.10
2022-10-12T09:32:06.225Z,11.97
2022-10-12T09:34:36.755Z,11.23
2022-10-12T09:37:06.133Z,10.00
2022-10-12T09:39:38.295Z,10.40
2022-10-12T09:42:06.820Z,10.13
2022-10-12T09:44:40.421Z,10.40
2022-10-12T09:47:28.346Z,9.03
2022-10-12T09:49:59.753Z,10.23
2022-10-12T09:52:32.074Z,9.90
2022-10-12T09:55:05.144Z,10.20
2022-10-12T09:57:37.428Z,8.90
2022-10-12T10:00:20.512Z,9.33
2022-10-12T10:02:50.639Z,8.73
2022-10-12T10:05:27.406Z,8.53
2022-10-12T10:08:18.921Z,8.10
2022-10-12T10:10:51.715Z,9.30
2022-10-12T10:13:21.961Z,8.47
2022-10-12T10:15:53.141Z,9.27
2022-10-12T10:18:25.915Z,8.87
2022-10-12T10:20:59.057Z,9.83
2022-10-12T10:23:30.524Z,9.17
2022-10-12T10:26:05.550Z,8.73
2022-10-12T10:28:35.168Z,9.57
2022-10-12T10:31:06.453Z,9.40
2022-10-12T10:33:36.445Z,10.50
2022-10-12T10:36:16.657Z,9.67
2022-10-12T10:38:57.512Z,8.23
2022-10-12T10:41:28.625Z,8.73
2022-10-12T10:43:57.368Z,8.30
2022-10-12T10:46:27.991Z,8.00
2022-10-12T10:49:01.375Z,8.57
2022-10-12T10:51:50.066Z,8.17
2022-10-12T10:54:27.804Z,7.87
2022-10-12T10:57:01.222Z,7.43
2022-10-12T10:59:41.749Z,6.83
2022-10-12T11:02:32.942Z,8.27
2022-10-12T11:05:07.353Z,6.13
2022-10-12T11:07:44.162Z,6.90
2022-10-12T11:10:23.259Z,7.67
2022-10-12T11:12:56.528Z,5.80
2022-10-12T11:15:31.023Z,6.17
2022-10-12T11:18:09.308Z,6.63
2022-10-12T11:20:52.910Z,6.10
2022-10-12T11:23:31.042Z,7.23
2022-10-12T11:26:12.626Z,6.03
2022-10-12T11:28:42.403Z,6.80
2022-10-12T11:31:21.271Z,7.10
2022-10-12T11:33:51.464Z,7.37
2022-10-12T11:36:23.849Z,7.67
2022-10-12T11:39:05.918Z,7.23
2022-10-12T11:42:03.314Z,6.80
2022-10-12T11:44:42.409Z,7.00
2022-10-12T11:47:18.746Z,6.90
2022-10-12T11:49:55.438Z,7.20
2022-10-12T11:52:29.059Z,7.07
2022-10-12T11:55:08.325Z,7.40
2022-10-12T11:57:39.730Z,7.43
2022-10-12T12:00:19.646Z,7.33
2022-10-12T12:02:54.313Z,6.67
2022-10-12T12:05:22.958Z,6.93
2022-10-12T12:07:54.093Z,7.23
2022-10-12T12:11:05.721Z,6.00
2022-10-12T12:13:34.410Z,4.67
2022-10-12T12:16:36.726Z,6.53
2022-10-12T12:19:36.071Z,7.70
2022-10-12T12:22:26.385Z,6.27
2022-10-12T12:25:14.424Z,5.60
2022-10-12T12:27:46.508Z,6.63
2022-10-12T12:30:32.957Z,6.93
2022-10-12T12:33:04.294Z,5.33
2022-10-12T12:35:38.269Z,5.70
2022-10-12T12:38:21.775Z,5.10
2022-10-12T12:41:03.831Z,4.33
2022-10-12T12:43:58.907Z,4.80
2022-10-12T12:50:02.395Z,5.43
2022-10-12T12:52:34.540Z,4.53
2022-10-12T12:55:25.722Z,4.27
2022-10-12T12:58:20.876Z,4.73
2022-10-12T13:01:00.972Z,3.37
2022-10-12T13:03:47.555Z,3.53
2022-10-12T13:06:47.122Z,3.70
2022-10-12T13:09:40.587Z,4.10
2022-10-12T13:12:22.585Z,3.80
2022-10-12T13:15:18.869Z,4.00
2022-10-12T13:18:28.411Z,4.33
2022-10-12T13:21:01.888Z,3.80
2022-10-12T13:23:31.736Z,3.60
2022-10-12T13:26:04.261Z,3.77
2022-10-12T13:28:37.248Z,4.50
2022-10-12T13:31:10.654Z,4.10
2022-10-12T13:33:45.695Z,4.33
2022-10-12T13:36:21.826Z,4.43
2022-10-12T13:38:59.631Z,4.27
2022-10-12T13:41:30.614Z,4.70
2022-10-12T13:44:00.627Z,3.73
2022-10-12T13:46:42.306Z,3.73
2022-10-12T13:49:16.632Z,3.87
2022-10-12T13:51:46.865Z,3.70
2022-10-12T13:54:23.264Z,4.13
2022-10-12T13:56:56.801Z,4.40
2022-10-12T13:59:28.534Z,3.67
2022-10-12T14:02:00.827Z,4.47
2022-10-12T14:04:30.769Z,3.83
2022-10-12T14:07:03.218Z,4.73
2022-10-12T14:09:41.836Z,4.50
2022-10-12T14:12:11.882Z,3.50
2022-10-12T14:14:44.067Z,4.37
2022-10-12T14:17:16.125Z,4.07
2022-10-12T14:19:48.125Z,4.37
2022-10-12T14:22:22.933Z,5.17
2022-10-12T14:25:12.155Z,3.90
2022-10-12T14:27:41.453Z,4.87
2022-10-12T14:30:19.264Z,5.20
2022-10-12T14:32:48.545Z,5.00
2022-10-12T14:35:26.141Z,4.60
2022-10-12T14:37:56.302Z,4.60
2022-10-12T14:40:33.525Z,4.50
2022-10-12T14:43:05.180Z,4.60
2022-10-12T14:45:34.902Z,4.30
2022-10-12T14:48:05.144Z,4.43
2022-10-12T14:50:34.473Z,4.80
2022-10-12T14:53:06.731Z,4.70
2022-10-12T14:55:36.586Z,5.23
2022-10-12T14:58:08.234Z,4.40
2022-10-12T15:00:38.710Z,5.00
2022-10-12T15:03:07.445Z,4.27
2022-10-12T15:05:36.203Z,4.73
2022-10-12T15:08:09.093Z,3.93
2022-10-12T15:10:39.081Z,4.93
2022-10-12T15:13:07.551Z,5.10
2022-10-12T15:15:39.777Z,4.47
2022-10-12T15:18:08.328Z,4.00
2022-10-12T15:20:37.048Z,4.40
2022-10-12T15:23:06.174Z,4.07
2022-10-12T15:25:45.327Z,4.23
2022-10-12T15:28:13.965Z,4.20
2022-10-12T15:30:57.995Z,3.80
2022-10-12T15:33:31.574Z,4.60
2022-10-12T15:36:00.347Z,4.07
2022-10-12T15:38:28.820Z,4.80
2022-10-12T15:40:59.153Z,4.03
2022-10-12T15:43:27.811Z,4.03
2022-10-12T15:45:57.203Z,3.60
2022-10-12T15:48:27.853Z,3.60
2022-10-12T15:50:56.206Z,4.27
2022-10-12T15:53:27.485Z,4.43
2022-10-12T15:55:57.056Z,4.13
2022-10-12T15:58:26.831Z,4.70
2022-10-12T16:00:56.637Z,4.10
2022-10-12T16:03:28.040Z,4.33
2022-10-12T16:05:56.403Z,4.43
2022-10-12T16:08:25.371Z,4.03
2022-10-12T16:10:53.985Z,4.20
2022-10-12T16:13:22.509Z,4.80
2022-10-12T16:15:52.269Z,4.53
2022-10-12T16:18:20.691Z,4.70
2022-10-12T16:20:53.592Z,4.47
2022-10-12T16:23:24.822Z,4.30
2022-10-12T16:25:53.825Z,4.40
2022-10-12T16:28:23.870Z,4.27
2022-10-12T16:30:54.793Z,4.53
2022-10-12T16:33:23.170Z,4.73
2022-10-12T16:35:51.561Z,3.97
2022-10-12T16:38:21.047Z,4.00
2022-10-12T16:40:50.275Z,3.57
2022-10-12T16:43:19.551Z,4.87
2022-10-12T16:45:57.252Z,4.67
2022-10-12T16:48:25.764Z,4.63
2022-10-12T16:50:54.329Z,4.60
2022-10-12T16:53:22.881Z,4.80
2022-10-12T16:55:51.389Z,4.83
2022-10-12T16:58:19.939Z,5.23
2022-10-12T17:00:48.547Z,5.40
2022-10-12T17:03:18.447Z,4.30
2022-10-12T17:05:46.965Z,6.07
2022-10-12T17:08:15.867Z,5.90
2022-10-12T17:10:45.674Z,7.17
2022-10-12T17:13:14.866Z,4.70
2022-10-12T17:15:43.621Z,5.37
2022-10-12T17:18:12.179Z,5.70
2022-10-12T17:20:42.390Z,5.30
2022-10-12T17:23:11.076Z,5.70
2022-10-12T17:25:39.907Z,5.13
2022-10-12T17:28:09.074Z,4.93
2022-10-12T17:30:39.045Z,5.33
2022-10-12T17:33:07.685Z,5.50
2022-10-12T17:35:42.192Z,5.50
2022-10-12T17:38:10.760Z,4.77
2022-10-12T17:40:40.048Z,5.37
2022-10-12T17:43:08.878Z,4.90
2022-10-12T17:45:40.823Z,5.33
2022-10-12T17:48:09.447Z,4.77
2022-10-12T17:50:43.874Z,4.43
2022-10-12T17:53:13.124Z,4.93
2022-10-12T17:55:48.668Z,5.90
2022-10-12T17:58:17.705Z,4.90
2022-10-12T18:00:46.820Z,4.63
2022-10-12T18:03:15.307Z,5.83
2022-10-12T18:05:45.153Z,5.70
2022-10-12T18:08:13.679Z,5.23
2022-10-12T18:10:42.251Z,4.87
2022-10-12T18:13:11.258Z,5.70
2022-10-12T18:15:43.561Z,5.70
2022-10-12T18:18:15.245Z,5.50
2022-10-12T18:20:47.042Z,4.83
2022-10-12T18:23:15.742Z,5.60
2022-10-12T18:25:46.615Z,5.40
2022-10-12T18:28:16.181Z,5.10
2022-10-12T18:30:50.788Z,5.30
2022-10-12T18:33:19.758Z,5.93
2022-10-12T18:35:49.860Z,5.37
2022-10-12T18:38:18.581Z,4.80
2022-10-12T18:40:48.061Z,6.60
2022-10-12T18:43:16.465Z,5.53
2022-10-12T18:45:45.670Z,7.13
2022-10-12T18:48:15.184Z,7.47
2022-10-12T18:50:43.975Z,7.13
2022-10-12T18:53:14.252Z,5.87
2022-10-12T18:55:42.575Z,6.30
2022-10-12T18:58:10.989Z,5.80
2022-10-12T19:00:41.283Z,6.90
2022-10-12T19:03:12.749Z,6.20
2022-10-12T19:05:41.440Z,6.67
2022-10-12T19:08:10.017Z,6.30
2022-10-12T19:10:42.424Z,6.30
2022-10-12T19:13:11.033Z,5.90
2022-10-12T19:15:40.024Z,6.37
2022-10-12T19:18:08.582Z,6.23
2022-10-12T19:20:38.396Z,6.37
2022-10-12T19:23:06.878Z,7.10
2022-10-12T19:25:38.555Z,6.60
2022-10-12T19:28:08.539Z,6.03
2022-10-12T19:30:39.161Z,6.40
2022-10-12T19:33:07.635Z,6.17
2022-10-12T19:35:39.285Z,7.43
2022-10-12T19:38:07.885Z,7.27
2022-10-12T19:40:37.704Z,6.50
2022-10-12T19:43:06.996Z,6.23
2022-10-12T19:45:40.996Z,7.97
2022-10-12T19:48:10.276Z,6.27
2022-10-12T19:50:38.886Z,8.20
2022-10-12T19:53:07.420Z,6.60
2022-10-12T19:55:39.239Z,7.73
2022-10-12T19:58:08.438Z,7.60
2022-10-12T20:00:38.038Z,7.83
2022-10-12T20:03:08.003Z,6.80
2022-10-12T20:05:36.642Z,7.27
2022-10-12T20:08:05.402Z,7.00
2022-10-12T20:10:34.152Z,6.33
2022-10-12T20:13:02.995Z,7.70
2022-10-12T20:15:32.129Z,8.23
2022-10-12T20:18:00.894Z,6.93
2022-10-12T20:20:30.655Z,7.60
2022-10-12T20:22:59.179Z,7.67
2022-10-12T20:25:27.537Z,8.03
2022-10-12T20:27:55.965Z,7.27
2022-10-12T20:30:27.582Z,7.00
2022-10-12T20:33:00.863Z,6.57
2022-10-12T20:35:31.044Z,7.47
2022-10-12T20:37:59.679Z,6.73
2022-10-12T20:40:28.590Z,7.57
2022-10-12T20:42:57.441Z,8.23
2022-10-12T20:45:26.046Z,9.50
2022-10-12T20:47:54.644Z,8.50
2022-10-12T20:50:23.459Z,9.13
2022-10-12T20:52:53.271Z,6.77
2022-10-12T20:55:22.055Z,7.63
2022-10-12T20:57:50.526Z,9.40
2022-10-12T21:00:19.299Z,8.93
2022-10-12T21:02:48.014Z,7.93
2022-10-12T21:05:16.643Z,8.33
2022-10-12T21:07:45.047Z,8.30
2022-10-12T21:10:15.276Z,9.70
2022-10-12T21:12:43.800Z,8.37
2022-10-12T21:15:12.518Z,9.43
2022-10-12T21:17:41.267Z,9.90
2022-10-12T21:20:10.567Z,9.13
2022-10-12T21:22:39.191Z,10.73
2022-10-12T21:25:08.936Z,10.47
2022-10-12T21:27:38.927Z,10.60
2022-10-12T21:30:08.331Z,10.87
2022-10-12T21:32:37.106Z,10.03
2022-10-12T21:35:06.327Z,10.60
2022-10-12T21:37:34.980Z,10.33
2022-10-12T21:40:03.834Z,10.53
2022-10-12T21:42:32.272Z,10.33
2022-10-12T21:45:02.307Z,10.83
2022-10-12T21:47:31.164Z,11.53
2022-10-12T21:49:59.656Z,11.27
2022-10-12T21:52:28.259Z,11.77
2022-10-12T21:54:56.700Z,11.70
2022-10-12T21:57:25.314Z,12.07
2022-10-12T21:59:53.834Z,12.40
2022-10-12T22:02:23.714Z,12.03
2022-10-12T22:04:52.372Z,12.03
2022-10-12T22:07:20.904Z,13.07
2022-10-12T22:09:49.750Z,13.43
2022-10-12T22:12:18.862Z,13.03
2022-10-12T22:14:48.084Z,12.17
2022-10-12T22:17:19.629Z,13.40
2022-10-12T22:19:49.717Z,13.17
2022-10-12T22:22:18.300Z,15.17
2022-10-12T22:24:46.935Z,14.23
2022-10-12T22:27:15.310Z,13.03
2022-10-12T22:29:43.764Z,13.73
2022-10-12T22:32:12.523Z,14.07
2022-10-12T22:34:40.916Z,13.60
2022-10-12T22:37:10.827Z,13.10
2022-10-12T22:39:39.865Z,12.03
2022-10-12T22:42:08.478Z,12.33
2022-10-12T22:44:37.068Z,11.10
2022-10-12T22:47:06.105Z,12.03
2022-10-12T22:49:34.489Z,11.90
2022-10-12T22:52:03.026Z,10.80
2022-10-12T22:54:33.457Z,11.43
2022-10-12T22:57:02.059Z,11.37
2022-10-12T22:59:30.510Z,12.13
2022-10-12T23:01:59.049Z,13.57
2022-10-12T23:04:28.735Z,11.37
2022-10-12T23:06:57.230Z,11.40
2022-10-12T23:09:28.454Z,10.93
2022-10-12T23:11:59.734Z,11.33
2022-10-12T23:14:28.224Z,12.07
2022-10-12T23:16:56.752Z,11.53
2022-10-12T23:19:25.651Z,11.37
2022-10-12T23:21:54.422Z,11.43
2022-10-12T23:24:22.933Z,11.90
2022-10-12T23:26:53.926Z,10.77
2022-10-12T23:29:23.910Z,12.50
2022-10-12T23:31:52.345Z,13.23
2022-10-12T23:34:20.703Z,11.73
2022-10-12T23:36:50.135Z,11.67
2022-10-12T23:39:18.948Z,12.40
2022-10-12T23:41:47.383Z,12.13
2022-10-12T23:44:16.126Z,14.20
2022-10-12T23:46:46.205Z,13.43
2022-10-12T23:49:14.608Z,12.23
2022-10-12T23:51:43.231Z,12.77
2022-10-12T23:54:11.826Z,12.73
2022-10-12T23:56:40.277Z,13.30
2022-10-12T23:59:08.832Z,13.17
